createdAt,value
2019-04-22T00:01:32.388Z,74.05
2019-04-22T00:04:06.986Z,74.00
2019-04-22T00:06:51.821Z,74.74
2019-04-22T00:09:25.195Z,74.36
2019-04-22T00:12:01.817Z,74.54
2019-04-22T00:14:26.724Z,74.87
2019-04-22T00:16:58.528Z,75.17
2019-04-22T00:19:28.948Z,75.38
2019-04-22T00:22:03.137Z,75.51
2019-04-22T00:24:24.297Z,75.75
2019-04-22T00:26:59.998Z,75.81
2019-04-22T00:29:49.825Z,76.15
2019-04-22T00:32:05.246Z,76.12
2019-04-22T00:34:48.840Z,76.63
2019-04-22T00:37:17.219Z,76.59
2019-04-22T00:39:46.455Z,76.92
2019-04-22T00:42:21.402Z,76.74
2019-04-22T00:44:51.763Z,76.55
2019-04-22T00:47:23.447Z,77.37
2019-04-22T00:52:15.448Z,77.50
2019-04-22T00:54:55.702Z,77.34
2019-04-22T00:57:21.444Z,77.66
2019-04-22T00:59:54.826Z,77.56
2019-04-22T01:02:23.646Z,77.58
2019-04-22T01:04:57.550Z,77.86
2019-04-22T01:07:18.857Z,78.00
2019-04-22T01:09:52.075Z,79.36
2019-04-22T01:12:28.485Z,78.97
2019-04-22T01:14:57.227Z,79.25
2019-04-22T01:17:24.289Z,78.80
2019-04-22T01:19:56.310Z,79.22
2019-04-22T01:22:22.385Z,79.52
2019-04-22T01:24:50.312Z,79.18
2019-04-22T01:27:16.215Z,79.51
2019-04-22T01:29:46.903Z,79.49
2019-04-22T01:32:05.889Z,79.21
2019-04-22T01:34:46.075Z,79.77
2019-04-22T01:37:20.322Z,80.52
2019-04-22T01:39:58.334Z,80.00
2019-04-22T01:42:36.967Z,80.33
2019-04-22T01:44:59.601Z,79.66
2019-04-22T01:47:32.783Z,80.01
2019-04-22T01:49:59.867Z,79.84
2019-04-22T01:52:29.699Z,80.35
2019-04-22T01:55:06.659Z,80.42
2019-04-22T01:57:28.766Z,80.31
2019-04-22T01:59:59.059Z,80.28
2019-04-22T02:02:36.482Z,81.01
2019-04-22T02:05:05.712Z,80.79
2019-04-22T02:07:34.029Z,81.48
2019-04-22T02:10:04.025Z,81.73
2019-04-22T02:12:33.667Z,81.32
2019-04-22T02:15:07.898Z,81.23
2019-04-22T02:17:36.926Z,81.58
2019-04-22T02:20:07.213Z,81.07
2019-04-22T02:22:52.251Z,81.21
2019-04-22T02:25:09.348Z,81.17
2019-04-22T02:27:39.016Z,81.11
2019-04-22T02:30:05.418Z,81.62
2019-04-22T02:32:49.391Z,82.41
2019-04-22T02:35:11.173Z,82.46
2019-04-22T02:37:54.524Z,82.80
2019-04-22T02:40:09.578Z,83.06
2019-04-22T02:42:34.933Z,83.14
2019-04-22T02:45:07.177Z,82.30
2019-04-22T02:47:59.325Z,82.94
2019-04-22T02:53:00.881Z,83.48
2019-04-22T02:57:39.723Z,82.76
2019-04-22T03:00:29.422Z,81.99
2019-04-22T03:02:52.725Z,83.46
2019-04-22T03:05:21.618Z,82.83
2019-04-22T03:07:55.834Z,83.69
2019-04-22T03:10:38.488Z,83.41
2019-04-22T03:12:41.721Z,82.97
2019-04-22T03:15:34.989Z,83.35
2019-04-22T03:17:51.745Z,83.28
2019-04-22T03:20:11.139Z,83.17
2019-04-22T03:22:59.592Z,82.40
2019-04-22T03:27:38.784Z,82.67
2019-04-22T03:40:30.383Z,83.63
2019-04-22T03:42:55.954Z,83.08
2019-04-22T03:48:04.720Z,83.57
2019-04-22T03:50:25.931Z,83.64
2019-04-22T03:55:22.998Z,83.82
2019-04-22T04:00:41.650Z,83.76
2019-04-22T04:05:33.164Z,84.44
2019-04-22T04:07:57.716Z,85.05
2019-04-22T04:13:01.857Z,85.25
2019-04-22T04:15:24.841Z,84.99
2019-04-22T04:17:53.858Z,85.65
2019-04-22T04:22:58.965Z,85.20
2019-04-22T04:30:29.477Z,84.79
2019-04-22T04:35:30.494Z,84.07
2019-04-22T04:40:28.835Z,83.88
2019-04-22T04:42:54.142Z,84.22
2019-04-22T04:47:54.526Z,83.95
2019-04-22T04:50:27.335Z,84.16
2019-04-22T04:53:06.341Z,83.67
2019-04-22T04:55:34.881Z,83.79
2019-04-22T05:05:29.317Z,84.09
2019-04-22T05:07:55.356Z,84.58
2019-04-22T05:15:47.152Z,80.27
2019-04-22T05:17:57.795Z,79.52
2019-04-22T05:20:34.177Z,78.34
2019-04-22T05:22:51.077Z,75.80
2019-04-22T05:25:22.238Z,74.22
2019-04-22T05:27:50.889Z,73.59
2019-04-22T05:30:30.663Z,72.43
2019-04-22T05:32:58.010Z,71.05
2019-04-22T05:35:28.151Z,71.18
2019-04-22T05:37:57.737Z,70.82
2019-04-22T05:40:24.780Z,70.23
2019-04-22T05:42:56.572Z,69.10
2019-04-22T05:47:59.261Z,68.37
2019-04-22T05:50:24.735Z,67.97
2019-04-22T05:52:57.076Z,67.60
2019-04-22T05:55:33.211Z,66.68
2019-04-22T05:57:59.705Z,67.48
2019-04-22T06:03:07.197Z,66.81
2019-04-22T06:05:33.140Z,66.80
2019-04-22T06:08:02.136Z,66.48
2019-04-22T06:10:39.241Z,67.99
2019-04-22T06:13:00.897Z,69.92
2019-04-22T06:15:36.358Z,69.91
2019-04-22T06:18:16.133Z,70.18
2019-04-22T06:20:49.838Z,69.95
2019-04-22T06:23:19.283Z,70.25
2019-04-22T06:28:22.194Z,69.86
2019-04-22T06:30:54.669Z,69.60
2019-04-22T06:35:54.629Z,69.21
2019-04-22T06:43:20.121Z,69.96
2019-04-22T06:45:43.851Z,69.21
2019-04-22T06:48:23.631Z,69.43
2019-04-22T06:50:48.891Z,70.48
2019-04-22T06:53:16.832Z,70.08
2019-04-22T06:55:51.659Z,69.50
2019-04-22T06:58:34.946Z,68.64
2019-04-22T07:00:46.228Z,67.55
2019-04-22T07:03:39.889Z,68.30
2019-04-22T07:05:51.510Z,67.93
2019-04-22T07:10:50.814Z,56.77
2019-04-22T07:13:23.563Z,52.68
2019-04-22T07:16:08.902Z,52.99
2019-04-22T07:18:25.066Z,52.97
2019-04-22T07:20:57.825Z,52.43
2019-04-22T07:25:52.107Z,51.11
2019-04-22T07:28:20.221Z,50.79
2019-04-22T07:30:54.617Z,49.94
2019-04-22T07:36:12.607Z,49.43
2019-04-22T07:45:54.438Z,48.76
2019-04-22T07:48:35.762Z,48.97
2019-04-22T07:53:23.047Z,49.82
2019-04-22T07:56:00.187Z,48.88
2019-04-22T08:01:04.125Z,49.60
2019-04-22T08:03:54.150Z,49.43
2019-04-22T08:06:06.552Z,49.22
2019-04-22T08:11:30.923Z,48.31
2019-04-22T08:13:32.648Z,47.78
2019-04-22T08:23:37.946Z,46.64
2019-04-22T08:26:01.121Z,45.90
2019-04-22T08:28:40.758Z,44.70
2019-04-22T08:33:35.032Z,43.99
2019-04-22T08:36:10.853Z,43.93
2019-04-22T08:38:39.373Z,43.45
2019-04-22T08:41:23.050Z,43.48
2019-04-22T08:43:52.352Z,42.96
2019-04-22T08:46:25.312Z,42.99
2019-04-22T08:48:51.676Z,42.15
2019-04-22T08:51:22.267Z,42.45
2019-04-22T08:53:55.990Z,42.45
2019-04-22T08:56:29.600Z,42.03
2019-04-22T08:58:50.705Z,41.82
2019-04-22T09:03:52.690Z,40.94
2019-04-22T09:06:29.976Z,42.40
2019-04-22T09:08:55.320Z,42.08
2019-04-22T09:11:20.221Z,41.67
2019-04-22T09:16:27.975Z,41.07
2019-04-22T09:21:27.653Z,39.63
2019-04-22T09:23:55.667Z,39.48
2019-04-22T09:26:27.117Z,40.63
2019-04-22T09:31:19.046Z,39.76
2019-04-22T09:33:50.172Z,38.41
2019-04-22T09:38:46.818Z,39.52
2019-04-22T09:41:27.199Z,38.55
2019-04-22T09:46:32.871Z,39.38
2019-04-22T09:49:01.683Z,38.11
2019-04-22T09:51:29.127Z,39.45
2019-04-22T09:54:04.161Z,38.56
2019-04-22T09:56:23.804Z,38.75
2019-04-22T09:58:58.987Z,37.58
2019-04-22T10:04:03.720Z,35.74
2019-04-22T10:09:13.050Z,35.94
2019-04-22T10:16:35.479Z,35.08
2019-04-22T10:19:01.051Z,35.61
2019-04-22T10:21:37.179Z,35.97
2019-04-22T10:23:59.857Z,35.71
2019-04-22T10:26:34.900Z,34.17
2019-04-22T10:29:00.872Z,33.67
2019-04-22T10:31:44.787Z,33.98
2019-04-22T10:33:49.517Z,32.43
2019-04-22T10:36:05.897Z,32.88
2019-04-22T10:38:34.727Z,32.95
2019-04-22T10:41:04.769Z,32.03
2019-04-22T10:43:34.840Z,33.04
2019-04-22T10:46:04.168Z,32.78
2019-04-22T10:48:34.372Z,32.59
2019-04-22T10:51:04.459Z,32.85
2019-04-22T10:53:33.493Z,32.06
2019-04-22T10:56:03.235Z,32.28
2019-04-22T10:58:32.967Z,32.40
2019-04-22T11:01:01.623Z,31.97
2019-04-22T11:03:31.123Z,32.70
2019-04-22T11:06:01.248Z,33.41
2019-04-22T11:08:38.595Z,32.35
2019-04-22T11:11:16.239Z,31.76
2019-04-22T11:13:31.766Z,32.49
2019-04-22T11:16:00.623Z,32.41
2019-04-22T11:18:29.614Z,32.31
2019-04-22T11:20:59.746Z,32.04
2019-04-22T11:23:28.842Z,32.56
2019-04-22T11:25:59.562Z,32.87
2019-04-22T11:28:29.541Z,32.30
2019-04-22T11:30:58.697Z,31.66
2019-04-22T11:33:27.523Z,32.62
2019-04-22T11:35:56.012Z,31.37
2019-04-22T11:38:24.731Z,31.43
2019-04-22T11:40:55.484Z,31.37
2019-04-22T11:43:24.192Z,29.58
2019-04-22T11:45:53.368Z,32.76
2019-04-22T11:48:23.527Z,31.10
2019-04-22T11:50:52.063Z,30.37
2019-04-22T11:53:20.709Z,30.53
2019-04-22T11:55:50.735Z,29.80
2019-04-22T11:58:19.453Z,27.25
2019-04-22T12:00:49.478Z,27.91
2019-04-22T12:03:20.869Z,26.98
2019-04-22T12:05:49.954Z,27.49
2019-04-22T12:08:18.618Z,26.73
2019-04-22T12:10:54.232Z,25.70
2019-04-22T12:13:17.855Z,26.67
2019-04-22T12:15:46.882Z,25.93
2019-04-22T12:18:17.209Z,26.28
2019-04-22T12:20:47.182Z,26.08
2019-04-22T12:23:17.008Z,26.17
2019-04-22T12:25:52.501Z,27.44
2019-04-22T12:28:17.200Z,26.59
2019-04-22T12:30:45.883Z,26.52
2019-04-22T12:33:14.954Z,26.90
2019-04-22T12:35:44.402Z,26.80
2019-04-22T12:38:15.221Z,27.26
2019-04-22T12:40:51.867Z,26.11
2019-04-22T12:43:16.129Z,27.18
2019-04-22T12:45:44.743Z,26.61
2019-04-22T12:48:14.849Z,26.39
2019-04-22T12:50:45.918Z,26.02
2019-04-22T12:53:17.767Z,27.30
2019-04-22T12:55:44.290Z,27.61
2019-04-22T12:58:13.883Z,26.81
2019-04-22T13:00:42.829Z,26.83
2019-04-22T13:03:11.469Z,27.38
2019-04-22T13:05:40.984Z,27.21
2019-04-22T13:08:09.745Z,26.02
2019-04-22T13:10:45.605Z,26.44
2019-04-22T13:13:09.178Z,25.91
2019-04-22T13:15:39.115Z,26.17
2019-04-22T13:18:17.544Z,24.95
2019-04-22T13:20:38.683Z,26.14
2019-04-22T13:23:07.765Z,26.67
2019-04-22T13:25:36.731Z,27.40
2019-04-22T13:28:05.294Z,26.43
2019-04-22T13:30:34.674Z,27.07
2019-04-22T13:33:03.302Z,27.19
2019-04-22T13:35:31.980Z,27.97
2019-04-22T13:38:01.496Z,27.06
2019-04-22T13:40:30.791Z,27.65
2019-04-22T13:43:00.750Z,26.45
2019-04-22T13:45:29.824Z,27.28
2019-04-22T13:48:18.358Z,27.19
2019-04-22T13:51:00.962Z,26.12
2019-04-22T13:58:14.609Z,28.99
2019-04-22T14:00:32.038Z,26.81
2019-04-22T14:03:12.749Z,26.94
2019-04-22T14:05:42.984Z,27.14
2019-04-22T14:08:12.666Z,28.09
2019-04-22T14:10:42.808Z,26.35
2019-04-22T14:13:12.034Z,27.58
2019-04-22T14:15:42.256Z,26.61
2019-04-22T14:18:12.711Z,25.72
2019-04-22T14:20:42.819Z,27.00
2019-04-22T14:23:12.271Z,26.78
2019-04-22T14:25:43.024Z,27.06
2019-04-22T14:28:16.949Z,27.08
2019-04-22T14:30:42.509Z,27.01
2019-04-22T14:33:12.150Z,26.71
2019-04-22T14:35:41.607Z,26.99
2019-04-22T14:38:10.309Z,26.57
2019-04-22T14:40:40.960Z,26.36
2019-04-22T14:43:32.761Z,28.07
2019-04-22T14:46:12.249Z,26.50
2019-04-22T14:48:35.674Z,26.52
2019-04-22T14:51:00.893Z,28.60
2019-04-22T14:53:32.153Z,27.41
2019-04-22T14:55:42.250Z,26.90
2019-04-22T14:58:11.068Z,27.41
2019-04-22T15:00:40.015Z,27.01
2019-04-22T15:03:09.933Z,27.42
2019-04-22T15:05:40.026Z,26.64
2019-04-22T15:08:09.040Z,27.21
2019-04-22T15:10:38.154Z,28.18
2019-04-22T15:13:07.363Z,28.01
2019-04-22T15:15:43.601Z,28.62
2019-04-22T15:18:17.543Z,30.61
2019-04-22T15:20:54.276Z,30.10
2019-04-22T15:23:24.650Z,30.18
2019-04-22T15:25:54.657Z,30.64
2019-04-22T15:28:23.763Z,31.56
2019-04-22T15:30:53.251Z,31.99
2019-04-22T15:33:21.794Z,32.31
2019-04-22T15:35:51.530Z,30.54
2019-04-22T15:38:22.798Z,30.92
2019-04-22T15:40:50.463Z,31.02
2019-04-22T15:43:20.408Z,30.90
2019-04-22T15:45:50.786Z,30.32
2019-04-22T15:48:21.073Z,32.27
2019-04-22T15:50:50.751Z,31.83
2019-04-22T15:53:20.067Z,31.62
2019-04-22T15:55:48.742Z,31.53
2019-04-22T15:58:17.590Z,31.46
2019-04-22T16:00:57.635Z,31.82
2019-04-22T16:03:16.532Z,31.22
2019-04-22T16:05:46.100Z,30.25
2019-04-22T16:08:15.045Z,30.55
2019-04-22T16:10:43.965Z,30.82
2019-04-22T16:13:19.188Z,31.30
2019-04-22T16:15:42.942Z,31.22
2019-04-22T16:18:14.628Z,31.03
2019-04-22T16:20:41.743Z,31.34
2019-04-22T16:23:13.117Z,32.09
2019-04-22T16:25:53.642Z,32.69
2019-04-22T16:28:22.165Z,33.69
2019-04-22T16:30:51.133Z,34.53
2019-04-22T16:33:21.490Z,34.91
2019-04-22T16:35:50.857Z,35.38
2019-04-22T16:38:19.461Z,35.74
2019-04-22T16:40:48.644Z,35.80
2019-04-22T16:43:17.358Z,36.18
2019-04-22T16:45:45.879Z,35.83
2019-04-22T16:48:15.709Z,36.12
2019-04-22T16:50:46.602Z,36.46
2019-04-22T16:53:16.750Z,36.56
2019-04-22T16:55:46.643Z,35.91
2019-04-22T16:58:16.624Z,35.66
2019-04-22T17:00:46.944Z,35.25
2019-04-22T17:03:30.747Z,35.60
2019-04-22T17:06:19.451Z,36.42
2019-04-22T17:08:48.696Z,36.20
2019-04-22T17:11:17.929Z,35.82
2019-04-22T17:13:48.000Z,35.94
2019-04-22T17:16:18.049Z,36.05
2019-04-22T17:18:47.213Z,36.28
2019-04-22T17:21:17.397Z,36.27
2019-04-22T17:23:47.546Z,36.40
2019-04-22T17:26:16.691Z,36.46
2019-04-22T17:28:45.869Z,36.38
2019-04-22T17:31:14.506Z,36.65
2019-04-22T17:33:44.564Z,37.05
2019-04-22T17:36:14.050Z,37.33
2019-04-22T17:38:53.170Z,36.92
2019-04-22T17:41:24.369Z,36.80
2019-04-22T17:44:24.969Z,36.80
2019-04-22T17:46:33.652Z,36.92
2019-04-22T17:49:23.783Z,36.99
2019-04-22T17:52:15.645Z,38.20
2019-04-22T17:54:40.734Z,39.40
2019-04-22T17:57:05.191Z,39.50
2019-04-22T17:59:38.180Z,39.46
2019-04-22T18:02:02.119Z,40.04
2019-04-22T18:04:18.167Z,40.76
2019-04-22T18:07:12.959Z,41.08
2019-04-22T18:09:53.139Z,41.80
2019-04-22T18:12:11.849Z,43.71
2019-04-22T18:17:12.859Z,44.96
2019-04-22T18:19:35.169Z,44.87
2019-04-22T18:22:02.497Z,44.70
2019-04-22T18:24:28.059Z,44.37
2019-04-22T18:27:20.210Z,44.84
2019-04-22T18:29:41.773Z,45.46
2019-04-22T18:32:00.755Z,45.51
2019-04-22T18:34:34.271Z,46.06
2019-04-22T18:37:06.958Z,46.17
2019-04-22T18:39:42.416Z,45.81
2019-04-22T18:42:05.791Z,46.42
2019-04-22T18:44:39.842Z,46.17
2019-04-22T18:47:10.722Z,48.13
2019-04-22T18:49:37.611Z,48.47
2019-04-22T18:52:29.504Z,47.97
2019-04-22T18:55:14.627Z,48.22
2019-04-22T18:57:59.117Z,47.09
2019-04-22T19:00:18.524Z,45.99
2019-04-22T19:02:54.207Z,44.68
2019-04-22T19:05:34.717Z,42.68
2019-04-22T19:08:18.384Z,41.82
2019-04-22T19:10:51.839Z,41.34
2019-04-22T19:13:49.039Z,41.34
2019-04-22T19:15:48.861Z,41.24
2019-04-22T19:18:24.432Z,41.24
2019-04-22T19:20:52.058Z,41.56
2019-04-22T19:23:17.955Z,41.89
2019-04-22T19:25:43.788Z,41.79
2019-04-22T19:28:28.071Z,41.63
2019-04-22T19:30:48.204Z,41.43
2019-04-22T19:33:19.010Z,41.70
2019-04-22T19:35:44.326Z,41.22
2019-04-22T19:38:10.902Z,41.15
2019-04-22T19:41:00.622Z,41.70
2019-04-22T19:43:22.586Z,41.59
2019-04-22T19:45:50.631Z,41.97
2019-04-22T19:48:31.067Z,42.97
2019-04-22T19:50:58.987Z,43.24
2019-04-22T19:53:22.709Z,43.40
2019-04-22T19:55:49.733Z,43.52
2019-04-22T19:58:22.561Z,43.96
2019-04-22T20:01:09.146Z,44.10
2019-04-22T20:03:50.995Z,44.36
2019-04-22T20:06:31.558Z,44.64
2019-04-22T20:08:59.410Z,44.60
2019-04-22T20:11:30.760Z,44.89
2019-04-22T20:14:02.447Z,44.86
2019-04-22T20:16:27.272Z,44.83
2019-04-22T20:19:06.910Z,45.09
2019-04-22T20:21:28.317Z,45.15
2019-04-22T20:23:51.738Z,45.27
2019-04-22T20:26:24.780Z,45.12
2019-04-22T20:28:59.116Z,45.45
2019-04-22T20:31:33.966Z,45.59
2019-04-22T20:34:04.194Z,45.82
2019-04-22T20:36:51.879Z,45.96
2019-04-22T20:38:58.823Z,46.27
2019-04-22T20:41:26.274Z,46.17
2019-04-22T20:44:04.719Z,46.34
2019-04-22T20:46:31.253Z,46.62
2019-04-22T20:49:09.218Z,46.71
2019-04-22T20:51:43.893Z,46.61
2019-04-22T20:54:07.422Z,46.75
2019-04-22T20:56:30.086Z,46.70
2019-04-22T20:59:02.036Z,46.70
2019-04-22T21:01:36.883Z,46.97
2019-04-22T21:03:51.804Z,47.13
2019-04-22T21:06:37.034Z,47.21
2019-04-22T21:09:04.715Z,47.42
2019-04-22T21:11:34.039Z,47.24
2019-04-22T21:14:01.705Z,47.51
2019-04-22T21:16:41.384Z,47.17
2019-04-22T21:19:19.972Z,47.19
2019-04-22T21:21:37.725Z,47.19
2019-04-22T21:23:59.723Z,47.18
2019-04-22T21:26:34.896Z,47.02
2019-04-22T21:29:09.859Z,47.63
2019-04-22T21:31:41.362Z,47.20
2019-04-22T21:34:05.127Z,47.03
2019-04-22T21:36:42.241Z,47.17
2019-04-22T21:39:06.848Z,47.06
2019-04-22T21:41:36.851Z,46.72
2019-04-22T21:44:12.808Z,46.14
2019-04-22T21:46:44.322Z,45.53
2019-04-22T21:49:12.802Z,44.95
2019-04-22T21:51:43.252Z,45.44
2019-04-22T21:54:15.431Z,45.30
2019-04-22T21:57:13.390Z,45.35
2019-04-22T21:59:22.315Z,45.04
2019-04-22T22:01:55.490Z,44.89
2019-04-22T22:04:17.365Z,44.87
2019-04-22T22:06:40.424Z,44.98
2019-04-22T22:09:22.532Z,44.99
2019-04-22T22:11:51.096Z,45.07
2019-04-22T22:14:16.731Z,44.93
2019-04-22T22:16:43.559Z,45.16
2019-04-22T22:19:20.196Z,45.16
2019-04-22T22:24:23.131Z,45.47
2019-04-22T22:26:54.203Z,45.50
2019-04-22T22:29:31.821Z,45.45
2019-04-22T22:31:52.924Z,45.50
2019-04-22T22:34:24.527Z,45.62
2019-04-22T22:36:48.372Z,45.63
2019-04-22T22:39:16.432Z,45.50
2019-04-22T22:41:31.993Z,45.73
2019-04-22T22:44:10.742Z,45.70
2019-04-22T22:46:40.166Z,45.63
2019-04-22T22:49:22.984Z,45.80
2019-04-22T22:52:00.101Z,45.83
2019-04-22T22:54:23.966Z,45.89
2019-04-22T22:57:00.387Z,46.11
2019-04-22T22:59:27.655Z,46.03
2019-04-22T23:01:52.644Z,46.15
2019-04-22T23:04:29.601Z,46.44
2019-04-22T23:06:56.598Z,46.35
2019-04-22T23:09:29.073Z,46.50
2019-04-22T23:12:06.481Z,46.58
2019-04-22T23:14:28.105Z,46.60
2019-04-22T23:16:45.578Z,46.78
2019-04-22T23:19:08.910Z,46.88
2019-04-22T23:21:41.657Z,46.74
2019-04-22T23:24:27.444Z,46.83
2019-04-22T23:27:01.504Z,46.95
2019-04-22T23:29:27.000Z,46.74
2019-04-22T23:32:04.472Z,47.02
2019-04-22T23:34:38.936Z,47.28
2019-04-22T23:37:19.170Z,47.47
2019-04-22T23:40:13.973Z,47.29
2019-04-22T23:42:23.564Z,47.31
2019-04-22T23:44:56.352Z,47.25
2019-04-22T23:47:21.068Z,47.48
2019-04-22T23:49:56.637Z,47.62
2019-04-22T23:52:28.496Z,47.82
2019-04-22T23:55:10.172Z,47.95
2019-04-22T23:57:45.413Z,47.86
